Flight Track Log - Related Links

Times and Time Zones

All times are in EDT time to prevent confusion due to time zone crossing. See the TAM3490 flight status page for this flight to view local times or setup timezone preferences in your user account.

Time Position Orientation Groundspeed Altitude Reporting Facility
EDT Latitude Longitude Course Direction KTS MPH feet Rate Location/Type
Thu 06:11:48 AM -23.4290 -46.4650 70° East 160 184  Level FlightAware ADS-B
Thu 06:12:07 AM -23.4260 -46.4510 77° East 144 166 3,200 5,700 Climbing FlightAware ADS-B
Thu 06:12:28 AM -23.4220 -46.4370 73° East 155 178 3,800 2,000 Climbing FlightAware ADS-B
Thu 06:12:58 AM -23.4270 -46.4130 103° East 176 203 4,900 2,400 Climbing FlightAware ADS-B
Thu 06:13:03 AM -23.4310 -46.4100 145° Southeast 186 214 5,200 3,000 Climbing FlightAware ADS-B
Thu 06:13:12 AM -23.4390 -46.4090 173° South 196 226 5,600 2,276 Climbing FlightAware ADS-B
Thu 06:13:32 AM -23.4550 -46.4150 199° South 200 230 6,300 2,200 Climbing FlightAware ADS-B
Thu 06:13:42 AM -23.4640 -46.4240 223° Southwest 210 242 6,700 2,000 Climbing FlightAware ADS-B
Thu 06:14:02 AM -23.4770 -46.4410 230° Southwest 229 264 7,300 2,516 Climbing FlightAware ADS-B
Thu 06:14:13 AM -23.4840 -46.4520 235° Southwest 231 266 8,000 2,914 Climbing FlightAware ADS-B
Thu 06:14:37 AM -23.4980 -46.4740 235° Southwest 235 270 9,000 3,375 Climbing FlightAware ADS-B
Thu 06:15:17 AM -23.5250 -46.5120 232° Southwest 224 258 11,600 2,880 Climbing FlightAware ADS-B
Thu 06:15:52 AM -23.5500 -46.5460 231° Southwest 267 307 12,600 1,543 Climbing FlightAware ADS-B
Thu 06:16:27 AM -23.5820 -46.5910 232° Southwest 325 374 13,400 1,562 Climbing FlightAware ADS-B
Thu 06:17:05 AM -23.6170 -46.6460 235° Southwest 362 417 14,500 2,280 Climbing FlightAware ADS-B
Thu 06:17:17 AM -23.6220 -46.6670 255° West 356 410 15,300 3,130 Climbing FlightAware ADS-B
Thu 06:17:51 AM -23.6160 -46.7260 276° West 359 413 16,900 2,657 Climbing FlightAware ADS-B
Thu 06:18:27 AM -23.6060 -46.7920 279° West 371 427 18,400 2,583 Climbing FlightAware ADS-B
Thu 06:19:03 AM -23.5950 -46.8580 280° West 377 434 20,000 2,500 Climbing FlightAware ADS-B
Thu 06:19:39 AM -23.5800 -46.9270 283° West 389 448 21,400 2,314 Climbing FlightAware ADS-B
Thu 06:20:13 AM -23.5490 -46.9830 301° West 394 453 22,700 2,829 Climbing FlightAware ADS-B
Thu 06:20:49 AM -23.5140 -47.0450 302° West 382 440 24,700 3,088 Climbing FlightAware ADS-B
Thu 06:21:21 AM -23.4850 -47.0960 302° West 376 433 26,200 2,719 Climbing FlightAware ADS-B
Thu 06:21:53 AM -23.4550 -47.1470 303° West 366 421 27,600 1,521 Climbing FlightAware ADS-B
Thu 06:22:32 AM -23.4230 -47.2040 301° West 356 410 28,000 324 Climbing FlightAware ADS-B
Thu 06:23:07 AM -23.3890 -47.2630 302° West 391 450 28,000  Level FlightAware ADS-B
Thu 06:23:43 AM -23.3540 -47.3240 302° West 419 482 28,000  Level FlightAware ADS-B
Thu 06:24:19 AM -23.3160 -47.3910 302° West 424 488 28,000  Level FlightAware ADS-B
Thu 06:24:51 AM -23.2830 -47.4480 302° West 424 488 28,000  Level FlightAware ADS-B
Thu 06:25:27 AM -23.2460 -47.5130 302° West 424 488 28,000  Level FlightAware ADS-B
Thu 06:26:05 AM -23.2060 -47.5820 302° West 426 490 28,000  Level FlightAware ADS-B
Thu 06:26:37 AM -23.1720 -47.6400 303° West 425 489 28,000  Level FlightAware ADS-B
Thu 06:27:13 AM -23.1340 -47.7060 302° West 425 489 28,000  Level FlightAware ADS-B
Thu 06:27:49 AM -23.0970 -47.7710 302° West 427 491 28,000  Level FlightAware ADS-B
Thu 06:28:24 AM -23.0610 -47.8330 302° West 426 490 28,000  Level FlightAware ADS-B
Thu 06:28:57 AM -23.0250 -47.8950 302° West 428 493 28,000  Level FlightAware ADS-B
Thu 06:29:30 AM -22.9910 -47.9540 302° West 428 493 28,000  Level FlightAware ADS-B
Thu 06:30:05 AM -22.9550 -48.0160 302° West 428 493 28,000  Level FlightAware ADS-B
Thu 06:30:41 AM -22.9190 -48.0790 302° West 428 493 28,000  Level FlightAware ADS-B
Thu 06:31:16 AM -22.8810 -48.1430 303° West 429 494 28,000  Level FlightAware ADS-B
Thu 06:31:53 AM -22.8410 -48.2130 302° West 430 495 28,000  Level FlightAware ADS-B
Thu 06:32:29 AM -22.8040 -48.2750 303° West 430 495 28,000  Level FlightAware ADS-B
Thu 06:33:05 AM -22.7650 -48.3430 302° West 430 495 28,000  Level FlightAware ADS-B
Thu 06:33:37 AM -22.7290 -48.4040 303° West 430 495 28,000  Level FlightAware ADS-B
Thu 06:34:13 AM -22.6900 -48.4690 303° West 430 495 28,000  Level FlightAware ADS-B
Thu 06:34:49 AM -22.6520 -48.5350 302° West 429 494 28,000  Level FlightAware ADS-B
Thu 06:35:24 AM -22.6160 -48.5960 303° West 429 494 28,000  Level FlightAware ADS-B
Thu 06:35:57 AM -22.5820 -48.6540 302° West 429 494 28,000  Level FlightAware ADS-B
Thu 06:36:30 AM -22.5470 -48.7140 302° West 430 495 28,000  Level FlightAware ADS-B
Thu 06:37:09 AM -22.5050 -48.7860 302° West 431 496 28,000  Level FlightAware ADS-B
Thu 06:37:43 AM -22.4670 -48.8490 303° West 432 497 28,000  Level FlightAware ADS-B
Thu 06:38:17 AM -22.4320 -48.9080 303° West 433 498 28,000  Level FlightAware ADS-B
Thu 06:38:54 AM -22.3880 -48.9780 304° West 435 501 28,000 -82 Level FlightAware ADS-B
Thu 06:39:30 AM -22.3380 -49.0350 313° West 438 504 27,900 -554 Descending FlightAware ADS-B
Thu 06:39:59 AM -22.2910 -49.0730 323° Northwest 419 482 27,400 -882 Descending FlightAware ADS-B
Thu 06:40:38 AM -22.2280 -49.1110 331° Northwest 388 447 26,900 -1,216 Descending FlightAware ADS-B
Thu 06:41:13 AM -22.1690 -49.1350 339° North 380 437 25,900 -1,859 Descending FlightAware ADS-B
Thu 06:41:49 AM -22.1070 -49.1490 348° North 379 436 24,700 -2,057 Descending FlightAware ADS-B
Thu 06:42:23 AM -22.0480 -49.1610 349° North 376 433 23,500 -2,057 Descending FlightAware ADS-B
Thu 06:42:59 AM -21.9870 -49.1730 350° North 377 434 22,300 -2,000 Descending FlightAware ADS-B
Thu 06:43:35 AM -21.9270 -49.1860 349° North 376 433 21,100 -2,118 Descending FlightAware ADS-B
Thu 06:44:07 AM -21.8710 -49.2000 347° North 372 428 19,900 -2,029 Descending FlightAware ADS-B
Thu 06:44:43 AM -21.8130 -49.2220 341° North 367 422 18,800 -1,775 Descending FlightAware ADS-B
Thu 06:45:18 AM -21.7570 -49.2430 341° North 364 419 17,800 -1,765 Descending FlightAware ADS-B
Thu 06:45:51 AM -21.7050 -49.2630 340° North 360 414 16,800 -1,826 Descending FlightAware ADS-B
Thu 06:46:27 AM -21.6490 -49.2840 341° North 358 412 15,700 -1,808 Descending FlightAware ADS-B
Thu 06:47:04 AM -21.5910 -49.3060 341° North 354 407 14,600 -1,800 Descending FlightAware ADS-B
Thu 06:47:37 AM -21.5390 -49.3250 341° North 351 404 13,600 -1,775 Descending FlightAware ADS-B
Thu 06:48:15 AM -21.4810 -49.3470 341° North 345 397 12,500 -1,652 Descending FlightAware ADS-B
Thu 06:48:46 AM -21.4350 -49.3640 341° North 339 390 11,700 -1,676 Descending FlightAware ADS-B
Thu 06:49:23 AM -21.3800 -49.3850 340° North 332 382 10,600 -1,397 Descending FlightAware ADS-B
Thu 06:49:59 AM -21.3310 -49.4030 341° North 310 357 10,000 -857 Descending FlightAware ADS-B
Thu 06:50:19 AM -21.3030 -49.4140 340° North 295 339 9,800 -1,050 Descending FlightAware ADS-B
Thu 06:50:39 AM -21.2780 -49.4230 341° North 288 331 9,300 -1,650 Descending FlightAware ADS-B
Thu 06:50:59 AM -21.2520 -49.4330 340° North 287 330 8,700 -1,833 Descending FlightAware ADS-B
Thu 06:51:15 AM -21.2330 -49.4400 341° North 288 331 8,200 -1,787 Descending FlightAware ADS-B
Thu 06:51:46 AM -21.1980 -49.4530 341° North 289 333 7,300 -1,688 Descending FlightAware ADS-B
Thu 06:52:19 AM -21.1520 -49.4700 341° North 288 331 6,400 -930 Descending FlightAware ADS-B
Thu 06:52:57 AM -21.1110 -49.4850 341° North 287 330 6,200 -685 Descending FlightAware ADS-B
Thu 06:55:00 AM -20.9609 -49.4449 14° North  Level Estimated
Thu 06:55:15 AM -20.9670 -49.5380 14° North 3,900  Level FlightAware ADS-B
Thu 06:56:59 AM -20.8940 -49.5100 39° Northeast 3,100 -425 Descending FlightAware ADS-B
Thu 06:57:00 AM -20.8647 -49.4486 39° Northeast  Level Estimated
Thu 06:57:08 AM -20.8930 -49.5080 62° Northeast 150 173 3,100  Level FlightAware ADS-B
Thu 06:57:39 AM -20.8770 -49.4880 49° Northeast 119 137 3,200  Climbing FlightAware ADS-B
Thu 06:57:55 AM -20.8720 -49.4810 53° Northeast 120 138 3,100 -563 Descending FlightAware ADS-B
Thu 06:58:11 AM -20.8670 -49.4740 53° Northeast 118 136 2,900 -571 Descending FlightAware ADS-B
Thu 06:58:37 AM -20.8590 -49.4630 52° Northeast 112 129 2,700 -600 Descending FlightAware ADS-B
Thu 06:58:51 AM -20.8540 -49.4570 48° Northeast 112 129 2,500 -632 Descending FlightAware ADS-B
Thu 06:59:15 AM -20.8460 -49.4460 52° Northeast 116 133 2,300 -429 Descending FlightAware ADS-B
Thu 06:59:33 AM -20.8420 -49.4400 54° Northeast 116 133 2,200 -571 Descending FlightAware ADS-B
Thu 06:59:57 AM -20.8330 -49.4280 51° Northeast 116 133 1,900 -625 Descending FlightAware ADS-B
Thu 07:00:21 AM -20.8240 -49.4170 49° Northeast 121 139 1,700 -500 Descending FlightAware ADS-B
Thu 07:00:38 AM -20.8190 -49.4090 56° Northeast 119 137 -6,000 Descending FlightAware ADS-B
Thu 07:01:01 AM -20.8150 -49.4050 43° Northeast 119 137  Level FlightAware ADS-B
Thu 07:01:57 AM -20.8130 -49.4030 43° Northeast 119 137  Level FlightAware ADS-B
Thu 07:02:45 AM -20.8120 -49.4040 317° Northwest 119 137  Level FlightAware ADS-B
Thu 07:03:35 AM -20.8170 -49.3920 114° Southeast 119 137  Level FlightAware ADS-B
Thu 07:04:08 AM -20.8170 -49.3910 90° East 119 137  Level FlightAware ADS-B
Thu 07:06:00 AM -20.8166 -49.4065 272° West  Level Estimated
Thu 07:06:29 AM -20.8120 -49.4040 272° West 119 137  Level FlightAware ADS-B
Thu 07:06:56 AM -20.8170 -49.3910 112° Southeast 119 137  Level FlightAware ADS-B
Thu 07:07:29 AM -20.8180 -49.3910 180° South 119 137  Level FlightAware ADS-B
Thu 07:08:19 AM -20.8120 -49.4040 296° West 119 137  Level FlightAware ADS-B
Thu 07:08:45 AM -20.8170 -49.3920 114° Southeast 119 137  Level FlightAware ADS-B
Thu 07:09:12 AM -20.8120 -49.4040 294° West 119 137  Level FlightAware ADS-B
Thu 07:09:37 AM -20.8170 -49.3920 114° Southeast 119 137  Level FlightAware ADS-B
Thu 07:12:00 AM -20.8166 -49.4065 272° West  Level Estimated
Thu 07:12:28 AM -20.8180 -49.3910 272° West 119 137  Level FlightAware ADS-B
Thu 07:13:28 AM -20.8120 -49.4040 296° West 119 137  Level FlightAware ADS-B
Thu 07:13:56 AM -20.8180 -49.3910 116° Southeast 119 137  Level FlightAware ADS-B
Thu 07:14:10 AM -20.8120 -49.4040 296° West 119 137  Level FlightAware ADS-B
Thu 07:14:37 AM -20.8170 -49.3910 112° Southeast 119 137  Level FlightAware ADS-B
Thu 07:15:14 AM -20.8170 -49.3920 270° West 119 137  Level FlightAware ADS-B
Thu 07:17:04 AM -20.8120 -49.4040 294° West 119 137  Level FlightAware ADS-B
Thu 07:17:30 AM -20.8170 -49.3920 114° Southeast 119 137  Level FlightAware ADS-B
Thu 07:19:52 AM -20.8120 -49.4040 294° West 119 137  Level FlightAware ADS-B
Thu 07:20:18 AM -20.8170 -49.3920 114° Southeast 119 137  Level FlightAware ADS-B
Thu 07:21:04 AM -20.8120 -49.4040 294° West 119 137  Level FlightAware ADS-B
Thu 07:21:32 AM -20.8180 -49.3910 116° Southeast 119 137  Level FlightAware ADS-B
Thu 07:22:01 AM -20.8170 -49.3920 317° Northwest 119 137  Level FlightAware ADS-B
Thu 07:22:42 AM -20.8120 -49.4040 294° West 119 137  Level FlightAware ADS-B
Thu 07:24:34 AM -20.8170 -49.3920 114° Southeast 119 137  Level FlightAware ADS-B
Thu 07:26:50 AM -20.8120 -49.4040 294° West 119 137  Level FlightAware ADS-B
Thu 07:27:17 AM -20.8170 -49.3910 112° Southeast 119 137  Level FlightAware ADS-B
Thu 07:30:34 AM -20.8120 -49.4040 292° West 119 137  Level FlightAware ADS-B
Thu 07:31:02 AM -20.8180 -49.3910 116° Southeast 119 137  Level FlightAware ADS-B
Thu 07:32:03 AM -20.8170 -49.3920 317° Northwest 119 137  Level FlightAware ADS-B
Thu 07:33:19 AM -20.8180 -49.3910 137° Southeast 119 137  Level FlightAware ADS-B
Thu 07:33:40 AM -20.8120 -49.4040 296° West 119 137  Level FlightAware ADS-B
Thu 07:34:07 AM -20.8170 -49.3910 112° Southeast 119 137  Level FlightAware ADS-B
Thu 07:34:39 AM -20.8180 -49.3910 180° South 119 137  Level FlightAware ADS-B
Thu 07:34:51 AM -20.8120 -49.4040 296° West 119 137  Level FlightAware ADS-B
Thu 07:35:16 AM -20.8170 -49.3920 114° Southeast 119 137  Level FlightAware ADS-B
Thu 07:36:35 AM -20.8120 -49.4040 294° West 119 137  Level FlightAware ADS-B
Thu 07:37:00 AM -20.8170 -49.3920 114° Southeast 119 137  Level FlightAware ADS-B
Thu 07:37:08 AM -20.8120 -49.4040 294° West 119 137  Level FlightAware ADS-B
Thu 07:37:36 AM -20.8180 -49.3910 116° Southeast 119 137  Level FlightAware ADS-B
Thu 07:37:48 AM -20.8120 -49.4040 296° West 119 137  Level FlightAware ADS-B
Thu 07:38:16 AM -20.8180 -49.3910 116° Southeast 119 137  Level FlightAware ADS-B
Thu 07:39:16 AM -20.8170 -49.3910 360° North 119 137  Level FlightAware ADS-B
Thu 07:39:37 AM -20.8120 -49.4040 292° West 119 137  Level FlightAware ADS-B
Thu 07:40:04 AM -20.8170 -49.3910 112° Southeast 119 137  Level FlightAware ADS-B
Thu 07:40:18 AM -20.8120 -49.4040 292° West 119 137  Level FlightAware ADS-B
Thu 07:40:44 AM -20.8170 -49.3920 114° Southeast 119 137  Level FlightAware ADS-B
Thu 07:41:16 AM -20.8170 -49.3910 90° East 119 137  Level FlightAware ADS-B
Thu 07:42:59 AM -20.8120 -49.4040 292° West 119 137  Level FlightAware ADS-B
Thu 07:43:24 AM -20.8170 -49.3920 114° Southeast 119 137  Level FlightAware ADS-B
Thu 07:44:43 AM -20.8120 -49.4040 294° West 119 137  Level FlightAware ADS-B
Thu 07:45:08 AM -20.8170 -49.3920 114° Southeast 119 137  Level FlightAware ADS-B
Thu 07:47:39 AM -20.8120 -49.4040 294° West 119 137  Level FlightAware ADS-B
Thu 07:48:04 AM -20.8170 -49.3920 114° Southeast 119 137  Level FlightAware ADS-B
Thu 07:51:20 AM -20.8180 -49.3900 118° Southeast 119 137  Level FlightAware ADS-B
Thu 07:51:56 AM -20.8180 -49.3910 270° West 119 137  Level FlightAware ADS-B
Thu 07:53:40 AM -20.8170 -49.3910 360° North 119 137  Level FlightAware ADS-B
Thu 07:54:13 AM -20.8180 -49.3910 180° South 119 137  Level FlightAware ADS-B

Login

Don't have an account? Register now (free) for customized features, flight alerts, and more!